Time;durP1;ratioP1;P1;durP2;ratioP2;P2;SDS_P1;SDS_P2;PMS_P1;PMS_P2;Temp;Humidity;BMP_temperature;BMP_pressure;BME280_temperature;BME280_humidity;BME280_pressure;Samples;Min_cycle;Max_cycle;Signal;HPM_P1;HPM_P2
2023/06/30 00:00:36;;;;;;;;;;;;;;;24.05;66.40;100729.47;7403612;19;1029;-54
2023/06/30 00:03:05;;;;;;;;;;;;;;;24.05;66.31;100729.47;7398549;19;1911;-54
2023/06/30 00:05:34;;;;;;;;;;;;;;;24.07;66.11;100715.81;7399628;19;1517;-54
2023/06/30 00:08:03;;;;;;;;;;;;;;;24.06;66.06;100731.19;7401572;19;1802;-54
2023/06/30 00:10:31;;;;;;;;;;;;;;;24.02;66.09;100714.47;7402909;19;1778;-54
2023/06/30 00:12:59;;;;;;;;;;;;;;;24.06;66.13;100731.19;7402403;19;1480;-54
2023/06/30 00:15:30;;;;;;;;;;;;;;;24.06;66.28;100731.19;7403105;19;975;-54
2023/06/30 00:17:59;;;;;;;;;;;;;;;24.09;66.04;100732.69;7402582;19;1040;-54
2023/06/30 00:20:27;;;;;;;;;;;;;;;24.09;66.02;100720.03;7401119;19;1573;-54
2023/06/30 00:22:55;;;;;;;;;;;;;;;24.07;66.15;100722.06;7396078;19;2124;-54
2023/06/30 00:25:23;;;;;;;;;;;;;;;24.08;66.03;100725.63;7401600;19;1399;-54
2023/06/30 00:27:52;;;;;;;;;;;;;;;24.08;66.21;100736.44;7401998;19;1152;-54
2023/06/30 00:30:20;;;;;;;;;;;;;;;24.04;65.89;100727.81;7401308;19;1543;-54
2023/06/30 00:32:51;;;;;;;;;;;;;;;24.06;66.34;100735.75;7399644;19;1762;-54
2023/06/30 00:35:19;;;;;;;;;;;;;;;24.01;66.14;100730.84;7400659;19;1806;-54
2023/06/30 00:37:47;;;;;;;;;;;;;;;24.08;66.09;100741.81;7400193;19;1758;-54
2023/06/30 00:40:16;;;;;;;;;;;;;;;24.10;66.13;100723.59;7399527;19;1322;-54
2023/06/30 00:42:45;;;;;;;;;;;;;;;24.07;66.10;100722.06;7399421;19;1847;-54
2023/06/30 00:45:13;;;;;;;;;;;;;;;24.07;66.11;100742.81;7400554;19;1683;-54
2023/06/30 00:47:41;;;;;;;;;;;;;;;24.07;65.96;100730.16;7400146;19;1743;-54
2023/06/30 00:50:12;;;;;;;;;;;;;;;24.06;65.82;100719.53;7400468;19;1311;-54
2023/06/30 00:52:42;;;;;;;;;;;;;;;24.08;65.95;100737.25;7401605;19;1034;-54
2023/06/30 00:55:11;;;;;;;;;;;;;;;24.07;65.90;100730.16;7401181;19;869;-54
2023/06/30 00:57:39;;;;;;;;;;;;;;;24.06;66.20;100739.28;7396316;19;1513;-54
2023/06/30 01:00:11;;;;;;;;;;;;;;;24.07;65.72;100723.91;7399101;19;1657;-54
2023/06/30 01:02:43;;;;;;;;;;;;;;;24.09;65.80;100736.22;7399162;19;1845;-54
2023/06/30 01:05:25;;;;;;;;;;;;;;;24.11;65.88;100730.66;7398707;19;1711;-54
2023/06/30 01:07:55;;;;;;;;;;;;;;;24.09;65.95;100736.22;7400343;19;1738;-54
2023/06/30 01:10:25;;;;;;;;;;;;;;;24.09;65.80;100725.44;7401167;19;1045;-54
2023/06/30 01:12:53;;;;;;;;;;;;;;;24.13;66.04;100742.16;7400927;19;1824;-54
2023/06/30 01:15:22;;;;;;;;;;;;;;;24.07;66.00;100738.25;7399648;19;1447;-54
2023/06/30 01:17:54;;;;;;;;;;;;;;;24.11;65.61;100733.38;7399179;19;1865;-54
2023/06/30 01:20:29;;;;;;;;;;;;;;;24.09;65.88;100735.41;7397011;19;1510;-55
2023/06/30 01:23:00;;;;;;;;;;;;;;;24.10;65.80;100737.94;7398530;19;1842;-54
2023/06/30 01:25:31;;;;;;;;;;;;;;;24.05;65.80;100729.47;7399948;19;1684;-54
2023/06/30 01:28:00;;;;;;;;;;;;;;;24.08;65.87;100726.44;7400583;19;987;-54
2023/06/30 01:30:30;;;;;;;;;;;;;;;24.05;65.81;100737.59;7399968;19;1090;-54
2023/06/30 01:32:58;;;;;;;;;;;;;;;24.05;66.07;100728.66;7398410;19;1869;-54
2023/06/30 01:35:30;;;;;;;;;;;;;;;24.06;65.92;100733.88;7398914;19;1790;-54
2023/06/30 01:37:59;;;;;;;;;;;;;;;24.07;66.05;100722.06;7398438;19;1719;-54
2023/06/30 01:40:28;;;;;;;;;;;;;;;24.06;65.64;100725.78;7398182;19;1814;-54
2023/06/30 01:42:57;;;;;;;;;;;;;;;24.02;66.15;100714.47;7396411;19;1845;-54
2023/06/30 01:45:26;;;;;;;;;;;;;;;24.06;65.90;100722.25;7399078;19;1656;-54
2023/06/30 01:47:54;;;;;;;;;;;;;;;24.04;65.95;100717.00;7398522;19;1351;-54
2023/06/30 01:50:23;;;;;;;;;;;;;;;24.05;66.03;100718.69;7398018;19;1837;-54
2023/06/30 01:52:54;;;;;;;;;;;;;;;24.06;65.89;100720.38;7398956;19;1382;-54
2023/06/30 01:55:23;;;;;;;;;;;;;;;24.09;66.01;100716.47;7399823;19;951;-54
2023/06/30 01:57:51;;;;;;;;;;;;;;;24.05;65.90;100721.38;7394952;19;1604;-54
2023/06/30 02:00:19;;;;;;;;;;;;;;;24.02;65.93;100729.84;7399363;19;1010;-54
2023/06/30 02:02:48;;;;;;;;;;;;;;;24.06;65.91;100720.38;7395054;19;1869;-54
2023/06/30 02:05:16;;;;;;;;;;;;;;;24.04;65.73;100717.00;7396690;19;1661;-54
2023/06/30 02:07:44;;;;;;;;;;;;;;;24.10;65.79;100727.13;7397448;19;1469;-54
2023/06/30 02:10:15;;;;;;;;;;;;;;;24.07;65.92;100715.81;7395241;19;1461;-54
2023/06/30 02:12:43;;;;;;;;;;;;;;;24.08;65.83;100704.84;7396437;19;1322;-54
2023/06/30 02:15:12;;;;;;;;;;;;;;;24.06;65.72;100716.84;7396393;19;1640;-55
2023/06/30 02:17:40;;;;;;;;;;;;;;;24.03;65.74;100720.72;7398413;19;1947;-54
2023/06/30 02:20:09;;;;;;;;;;;;;;;24.01;65.69;100720.03;7397559;19;1735;-54
2023/06/30 02:22:38;;;;;;;;;;;;;;;24.04;65.80;100717.00;7397707;19;1846;-54
2023/06/30 02:25:07;;;;;;;;;;;;;;;24.01;65.95;100738.94;7397953;19;1524;-54
2023/06/30 02:27:37;;;;;;;;;;;;;;;24.04;65.72;100730.50;7397880;19;1885;-54
2023/06/30 02:30:08;;;;;;;;;;;;;;;24.04;65.80;100727.81;7397401;19;1826;-54
2023/06/30 02:32:37;;;;;;;;;;;;;;;24.05;65.56;100732.19;7393369;19;1798;-54
2023/06/30 02:35:06;;;;;;;;;;;;;;;24.05;65.89;100736.75;7398368;19;1070;-54
2023/06/30 02:37:35;;;;;;;;;;;;;;;24.04;65.75;100737.78;7397409;19;1524;-54
2023/06/30 02:40:04;;;;;;;;;;;;;;;24.02;65.82;100735.25;7396943;19;1506;-54
2023/06/30 02:42:32;;;;;;;;;;;;;;;24.02;65.69;100732.53;7396707;19;1865;-54
2023/06/30 02:45:03;;;;;;;;;;;;;;;24.05;65.74;100743.00;7397668;19;1328;-54
2023/06/30 02:47:32;;;;;;;;;;;;;;;24.01;65.66;100728.13;7397721;19;1818;-54
2023/06/30 02:50:00;;;;;;;;;;;;;;;23.98;65.86;100739.28;7396863;19;1711;-54
2023/06/30 02:52:28;;;;;;;;;;;;;;;24.01;65.63;100747.03;7396717;19;1113;-54
2023/06/30 02:54:57;;;;;;;;;;;;;;;23.99;65.85;100751.78;7396954;19;1583;-54
2023/06/30 02:57:25;;;;;;;;;;;;;;;24.00;65.80;100746.22;7396727;19;2079;-54
2023/06/30 02:59:53;;;;;;;;;;;;;;;24.01;65.67;100753.31;7396506;19;1378;-54
2023/06/30 03:02:24;;;;;;;;;;;;;;;23.98;65.84;100744.69;7395442;19;1842;-54
2023/06/30 03:04:55;;;;;;;;;;;;;;;23.98;65.96;100756.34;7393891;19;1715;-54
2023/06/30 03:07:24;;;;;;;;;;;;;;;24.03;65.96;100758.53;7395245;19;1753;-54
2023/06/30 03:09:52;;;;;;;;;;;;;;;23.99;65.70;100770.69;7395095;19;1798;-54
2023/06/30 03:12:20;;;;;;;;;;;;;;;23.99;65.77;100744.53;7396459;19;1806;-54
2023/06/30 03:14:48;;;;;;;;;;;;;;;23.94;65.97;100748.75;7396294;19;1449;-54
2023/06/30 03:17:17;;;;;;;;;;;;;;;24.01;65.74;100749.75;7396400;19;1089;-54
2023/06/30 03:19:47;;;;;;;;;;;;;;;24.04;65.94;100743.19;7395186;19;1919;-54
2023/06/30 03:22:16;;;;;;;;;;;;;;;24.01;65.67;100756.00;7398879;19;1851;-55
2023/06/30 03:24:44;;;;;;;;;;;;;;;24.00;66.03;100746.22;7403215;19;1814;-55
2023/06/30 03:27:12;;;;;;;;;;;;;;;23.97;65.88;100753.81;7403032;19;1754;-54
2023/06/30 03:29:41;;;;;;;;;;;;;;;24.01;65.98;100755.16;7401758;19;1469;-54
2023/06/30 03:32:09;;;;;;;;;;;;;;;23.79;65.66;100767.47;7402021;19;1452;-54
2023/06/30 03:34:38;;;;;;;;;;;;;;;23.52;63.67;100758.63;7403415;19;1403;-54
2023/06/30 03:37:09;;;;;;;;;;;;;;;23.65;64.15;100744.63;7402687;19;1568;-54
2023/06/30 03:39:38;;;;;;;;;;;;;;;23.92;63.58;100745.38;7402090;19;1324;-53
2023/06/30 03:42:07;;;;;;;;;;;;;;;23.93;64.01;100741.66;7402577;19;1332;-54
2023/06/30 03:44:35;;;;;;;;;;;;;;;23.92;64.56;100750.78;7399629;19;1843;-56
2023/06/30 03:47:03;;;;;;;;;;;;;;;24.01;64.70;100730.84;7400135;19;1027;-54
2023/06/30 03:49:32;;;;;;;;;;;;;;;24.01;64.99;100744.34;7402274;19;1528;-54
2023/06/30 03:52:00;;;;;;;;;;;;;;;23.94;65.59;100756.84;7402680;19;1829;-54
2023/06/30 03:54:31;;;;;;;;;;;;;;;23.94;65.43;100743.34;7401183;19;1972;-54
2023/06/30 03:56:59;;;;;;;;;;;;;;;23.87;65.96;100745.84;7402846;19;1020;-54
2023/06/30 03:59:28;;;;;;;;;;;;;;;23.88;65.94;100734.06;7402219;19;1731;-54
2023/06/30 04:01:56;;;;;;;;;;;;;;;23.72;66.48;100734.88;7399313;19;1876;-57
2023/06/30 04:04:24;;;;;;;;;;;;;;;23.68;66.37;100738.91;7398700;19;1847;-54
2023/06/30 04:06:53;;;;;;;;;;;;;;;23.70;66.31;100736.88;7401353;19;1749;-54
2023/06/30 04:09:21;;;;;;;;;;;;;;;23.65;66.69;100739.22;7400780;19;1323;-54
2023/06/30 04:11:52;;;;;;;;;;;;;;;23.72;66.40;100747.53;7402938;19;1025;-55
2023/06/30 04:14:20;;;;;;;;;;;;;;;23.67;66.46;100745.31;7402294;19;1042;-54
2023/06/30 04:16:49;;;;;;;;;;;;;;;23.82;66.31;100742.84;7401361;19;1473;-54
2023/06/30 04:19:17;;;;;;;;;;;;;;;23.79;66.20;100743.16;7401189;19;2100;-54
2023/06/30 04:21:46;;;;;;;;;;;;;;;23.87;66.19;100755.81;7400803;19;1917;-54
2023/06/30 04:24:15;;;;;;;;;;;;;;;23.84;66.21;100745.38;7399007;19;1834;-54
2023/06/30 04:26:43;;;;;;;;;;;;;;;23.78;66.27;100744.19;7400171;19;1426;-54
2023/06/30 04:29:14;;;;;;;;;;;;;;;23.77;66.41;100739.75;7400295;19;1026;-55
2023/06/30 04:31:42;;;;;;;;;;;;;;;23.78;66.28;100738.78;7399369;19;1489;-54
2023/06/30 04:34:10;;;;;;;;;;;;;;;23.76;66.37;100722.72;7398247;19;1837;-54
2023/06/30 04:36:39;;;;;;;;;;;;;;;23.84;66.09;100731.88;7399932;19;1802;-54
2023/06/30 04:39:08;;;;;;;;;;;;;;;23.76;66.37;100741.63;7399928;19;1711;-54
2023/06/30 04:41:36;;;;;;;;;;;;;;;23.75;66.54;100731.81;7398888;19;1696;-54
2023/06/30 04:44:04;;;;;;;;;;;;;;;23.79;66.25;100762.91;7396279;19;1847;-54
2023/06/30 04:46:35;;;;;;;;;;;;;;;23.78;66.34;100755.81;7400593;19;1742;-54
2023/06/30 04:49:04;;;;;;;;;;;;;;;23.80;66.38;100753.81;7400293;19;1382;-54
2023/06/30 04:51:32;;;;;;;;;;;;;;;23.80;66.40;100747.56;7402277;19;962;-54
2023/06/30 04:54:01;;;;;;;;;;;;;;;23.79;66.41;100741.28;7398935;19;1453;-54
2023/06/30 04:56:29;;;;;;;;;;;;;;;23.82;66.28;100751.78;7399026;19;1422;-54
2023/06/30 04:58:57;;;;;;;;;;;;;;;23.82;66.41;100754.47;7398685;19;1723;-54
2023/06/30 05:01:26;;;;;;;;;;;;;;;23.81;66.37;100749.25;7399731;19;1387;-54
2023/06/30 05:03:56;;;;;;;;;;;;;;;23.87;66.42;100743.16;7398665;19;1904;-55
2023/06/30 05:06:25;;;;;;;;;;;;;;;23.82;66.44;100757.19;7400758;19;1110;-54
2023/06/30 05:08:53;;;;;;;;;;;;;;;23.87;66.30;100759.38;7400096;19;1853;-54
2023/06/30 05:11:21;;;;;;;;;;;;;;;23.87;66.36;100763.94;7399181;19;1940;-54
2023/06/30 05:13:50;;;;;;;;;;;;;;;23.81;66.62;100755.50;7398727;19;1940;-54
2023/06/30 05:16:18;;;;;;;;;;;;;;;23.86;66.44;100773.06;7399203;19;1339;-54
2023/06/30 05:18:46;;;;;;;;;;;;;;;23.94;66.26;100755.00;7398855;19;1645;-54
2023/06/30 05:21:17;;;;;;;;;;;;;;;23.87;66.19;100756.66;7398261;19;1324;-54
2023/06/30 05:23:45;;;;;;;;;;;;;;;23.93;66.17;100768.66;7397652;19;1857;-54
2023/06/30 05:26:14;;;;;;;;;;;;;;;23.94;65.96;100754.16;7397817;19;1747;-54
2023/06/30 05:28:42;;;;;;;;;;;;;;;23.91;66.36;100762.56;7399595;19;1476;-54
2023/06/30 05:31:10;;;;;;;;;;;;;;;23.93;66.35;100768.66;7398640;19;1038;-54
2023/06/30 05:33:39;;;;;;;;;;;;;;;23.90;66.34;100763.59;7399749;19;1235;-55
2023/06/30 05:36:07;;;;;;;;;;;;;;;23.89;66.46;100770.00;7396794;19;1782;-54
2023/06/30 05:38:38;;;;;;;;;;;;;;;23.91;66.30;100762.56;7398420;19;1956;-54
2023/06/30 05:41:06;;;;;;;;;;;;;;;23.96;66.21;100766.47;7397209;19;1898;-54
2023/06/30 05:43:34;;;;;;;;;;;;;;;23.95;66.17;100766.63;7398003;19;1982;-54
2023/06/30 05:46:03;;;;;;;;;;;;;;;23.94;66.37;100775.75;7398223;19;1735;-54
2023/06/30 05:48:31;;;;;;;;;;;;;;;23.92;66.35;100766.97;7398263;19;1743;-54
2023/06/30 05:50:59;;;;;;;;;;;;;;;23.93;66.18;100763.25;7394960;19;1426;-55
2023/06/30 05:53:27;;;;;;;;;;;;;;;23.97;66.54;100765.47;7396437;19;1454;-55
2023/06/30 05:55:58;;;;;;;;;;;;;;;23.94;66.31;100775.75;7399241;19;1030;-54
2023/06/30 05:58:27;;;;;;;;;;;;;;;23.92;66.52;100756.19;7396238;19;2139;-54
2023/06/30 06:00:55;;;;;;;;;;;;;;;23.94;66.36;100754.16;7395931;19;1001;-54
2023/06/30 06:03:24;;;;;;;;;;;;;;;23.93;66.38;100752.44;7397487;19;1861;-54
2023/06/30 06:05:53;;;;;;;;;;;;;;;23.93;66.32;100749.75;7397658;19;1929;-55
2023/06/30 06:08:21;;;;;;;;;;;;;;;23.95;66.52;100759.38;7398075;19;1758;-54
2023/06/30 06:10:49;;;;;;;;;;;;;;;23.94;66.23;100749.59;7398099;19;1707;-54
2023/06/30 06:13:35;;;;;;;;;;;;;;;23.91;66.26;100744.50;7396977;19;1461;-54
2023/06/30 06:16:06;;;;;;;;;;;;;;;23.98;66.39;100755.50;7398261;19;1773;-54
2023/06/30 06:18:35;;;;;;;;;;;;;;;23.92;66.28;100742.69;7396943;19;1382;-54
2023/06/30 06:21:04;;;;;;;;;;;;;;;23.99;66.27;100767.97;7396474;19;1473;-54
2023/06/30 06:23:33;;;;;;;;;;;;;;;23.96;66.33;100757.53;7396576;19;1831;-54
2023/06/30 06:26:01;;;;;;;;;;;;;;;23.93;66.61;100757.84;7398016;19;1704;-54
2023/06/30 06:28:29;;;;;;;;;;;;;;;23.92;66.47;100745.38;7397270;19;1292;-54
2023/06/30 06:30:58;;;;;;;;;;;;;;;24.02;66.31;100763.09;7395004;19;1834;-54
2023/06/30 06:33:29;;;;;;;;;;;;;;;24.01;66.56;100755.16;7395384;19;1343;-54
2023/06/30 06:35:58;;;;;;;;;;;;;;;24.05;66.22;100761.91;7396859;19;1477;-54
2023/06/30 06:38:26;;;;;;;;;;;;;;;24.04;66.47;100767.50;7396944;19;1718;-54
2023/06/30 06:40:54;;;;;;;;;;;;;;;24.01;66.30;100761.41;7396712;19;1805;-54
2023/06/30 06:43:26;;;;;;;;;;;;;;;24.01;66.45;100772.22;7396623;19;2010;-54
2023/06/30 06:45:54;;;;;;;;;;;;;;;23.99;66.73;100768.84;7398566;19;946;-54
2023/06/30 06:48:24;;;;;;;;;;;;;;;24.00;66.38;100770.53;7398237;19;1015;-54
2023/06/30 06:50:55;;;;;;;;;;;;;;;23.99;66.54;100767.97;7397154;19;1951;-54
2023/06/30 06:53:25;;;;;;;;;;;;;;;24.02;66.60;100768.50;7393657;19;1825;-54
2023/06/30 06:55:54;;;;;;;;;;;;;;;24.02;66.18;100764.97;7397654;19;951;-54
2023/06/30 06:58:22;;;;;;;;;;;;;;;24.02;66.41;100770.34;7401972;19;1545;-54
2023/06/30 07:00:52;;;;;;;;;;;;;;;24.02;66.45;100767.66;7404538;19;1044;-54
2023/06/30 07:03:21;;;;;;;;;;;;;;;24.03;66.60;100763.94;7402292;19;1839;-55
2023/06/30 07:05:49;;;;;;;;;;;;;;;24.02;66.31;100763.09;7404177;19;1949;-54
2023/06/30 07:08:20;;;;;;;;;;;;;;;24.05;66.52;100763.75;7403806;19;1493;-54
2023/06/30 07:10:50;;;;;;;;;;;;;;;24.06;66.39;100770.88;7404110;19;1726;-54
2023/06/30 07:13:19;;;;;;;;;;;;;;;24.07;66.56;100767.97;7403252;19;1390;-54
2023/06/30 07:15:48;;;;;;;;;;;;;;;24.04;66.68;100771.03;7402887;19;1841;-54
2023/06/30 07:18:17;;;;;;;;;;;;;;;24.04;66.48;100772.91;7402312;19;1390;-54
2023/06/30 07:20:46;;;;;;;;;;;;;;;24.06;66.44;100774.41;7402135;19;1456;-54
2023/06/30 07:23:14;;;;;;;;;;;;;;;24.07;66.43;100776.06;7403359;19;1371;-54
2023/06/30 07:25:45;;;;;;;;;;;;;;;24.07;66.63;100773.38;7400912;19;1887;-54
2023/06/30 07:28:14;;;;;;;;;;;;;;;24.06;66.54;100762.75;7402865;19;1866;-54
2023/06/30 07:30:42;;;;;;;;;;;;;;;24.06;66.52;100769.00;7403102;19;1894;-54
2023/06/30 07:33:12;;;;;;;;;;;;;;;24.08;66.58;100768.84;7403629;19;1858;-54
2023/06/30 07:35:40;;;;;;;;;;;;;;;24.09;66.46;100773.22;7402465;19;1425;-54
2023/06/30 07:38:09;;;;;;;;;;;;;;;24.09;66.33;100763.25;7402824;19;1381;-54
2023/06/30 07:40:37;;;;;;;;;;;;;;;24.10;66.37;100772.22;7402358;19;1320;-54
2023/06/30 07:43:08;;;;;;;;;;;;;;;24.09;66.46;100774.06;7401578;19;1810;-54
2023/06/30 07:45:36;;;;;;;;;;;;;;;24.15;66.51;100773.41;7399199;19;1858;-54
2023/06/30 07:48:05;;;;;;;;;;;;;;;24.14;66.38;100750.09;7402769;19;1852;-54
2023/06/30 07:50:33;;;;;;;;;;;;;;;24.17;66.18;100765.09;7403215;19;1719;-54
2023/06/30 07:53:07;;;;;;;;;;;;;;;24.14;66.43;100736.56;7402037;19;1418;-54
2023/06/30 07:55:35;;;;;;;;;;;;;;;24.16;66.02;100752.63;7402382;19;1340;-54
2023/06/30 07:58:04;;;;;;;;;;;;;;;24.14;66.14;100746.56;7403998;19;1730;-54
2023/06/30 08:00:35;;;;;;;;;;;;;;;24.16;66.21;100753.47;7403113;19;1029;-54
2023/06/30 08:03:03;;;;;;;;;;;;;;;24.18;66.06;100740.63;7400576;19;2003;-54
2023/06/30 08:05:31;;;;;;;;;;;;;;;24.18;66.43;100739.78;7400214;19;1855;-54
2023/06/30 08:07:59;;;;;;;;;;;;;;;24.16;66.09;100725.59;7397868;19;1072;-54
2023/06/30 08:10:28;;;;;;;;;;;;;;;24.17;66.09;100748.91;7401060;19;2090;-54
2023/06/30 08:12:56;;;;;;;;;;;;;;;24.14;66.36;100755.50;7401517;19;1473;-54
2023/06/30 08:15:24;;;;;;;;;;;;;;;24.15;66.36;100745.53;7401349;19;1472;-54
2023/06/30 08:17:55;;;;;;;;;;;;;;;24.14;66.37;100744.69;7401333;19;1292;-54
2023/06/30 08:20:23;;;;;;;;;;;;;;;24.14;66.40;100751.94;7400879;19;1422;-54
2023/06/30 08:22:52;;;;;;;;;;;;;;;24.15;66.36;100730.19;7400319;19;1448;-54
2023/06/30 08:25:22;;;;;;;;;;;;;;;24.17;66.41;100735.38;7401374;19;1841;-54
2023/06/30 08:27:50;;;;;;;;;;;;;;;24.11;66.48;100734.19;7400707;19;1817;-54
2023/06/30 08:30:19;;;;;;;;;;;;;;;24.15;66.29;100732.88;7401831;19;1802;-54
2023/06/30 08:32:47;;;;;;;;;;;;;;;24.15;66.52;100729.31;7400762;19;1412;-54
2023/06/30 08:35:18;;;;;;;;;;;;;;;24.14;66.31;100712.25;7402186;19;1046;-54
2023/06/30 08:37:46;;;;;;;;;;;;;;;24.17;66.13;100725.44;7399984;19;1690;-54
2023/06/30 08:40:15;;;;;;;;;;;;;;;24.17;66.14;100720.03;7400864;19;1667;-54
2023/06/30 08:42:48;;;;;;;;;;;;;;;24.18;66.20;100713.59;7399763;19;1398;-54
2023/06/30 08:45:16;;;;;;;;;;;;;;;24.16;66.07;100718.34;7399788;19;1853;-54
2023/06/30 08:47:45;;;;;;;;;;;;;;;24.16;66.46;100715.63;7399911;19;1513;-54
2023/06/30 08:50:13;;;;;;;;;;;;;;;24.19;66.22;100727.94;7400554;19;1304;-54
2023/06/30 08:52:45;;;;;;;;;;;;;;;24.21;66.38;100710.56;7400342;19;1129;-54
2023/06/30 08:55:13;;;;;;;;;;;;;;;24.18;66.35;100702.78;7402037;19;1024;-54
2023/06/30 08:57:43;;;;;;;;;;;;;;;24.19;66.34;100715.31;7400534;19;1869;-54
2023/06/30 09:00:12;;;;;;;;;;;;;;;24.18;66.38;100710.06;7400186;19;1794;-54
2023/06/30 09:02:41;;;;;;;;;;;;;;;24.19;66.23;100699.09;7398273;19;1783;-54
2023/06/30 09:05:10;;;;;;;;;;;;;;;24.20;66.20;100689.97;7396462;19;1842;-54
2023/06/30 09:07:48;;;;;;;;;;;;;;;24.21;66.37;100707.88;7399489;19;1727;-54
2023/06/30 09:10:19;;;;;;;;;;;;;;;24.19;66.15;100692.81;7399059;19;1453;-54
2023/06/30 09:12:48;;;;;;;;;;;;;;;24.22;66.17;100690.63;7400561;19;1814;-54
2023/06/30 09:15:19;;;;;;;;;;;;;;;24.21;66.39;100694.38;7399573;19;1703;-54
2023/06/30 09:17:47;;;;;;;;;;;;;;;24.21;66.06;100696.19;7397018;19;1289;-54
2023/06/30 09:20:16;;;;;;;;;;;;;;;24.25;65.97;100704.81;7399524;19;1821;-54
2023/06/30 09:22:44;;;;;;;;;;;;;;;24.16;66.35;100694.03;7397357;19;2066;-54
2023/06/30 09:25:27;;;;;;;;;;;;;;;24.15;66.47;100697.75;7399854;19;1862;-54
2023/06/30 09:27:58;;;;;;;;;;;;;;;24.17;66.37;100693.03;7398601;19;2092;-54
2023/06/30 09:30:33;;;;;;;;;;;;;;;24.18;66.20;100699.25;7399776;19;1591;-54
2023/06/30 09:33:02;;;;;;;;;;;;;;;24.19;66.30;100679.31;7398736;19;1921;-54
2023/06/30 09:35:38;;;;;;;;;;;;;;;24.17;66.23;100682.22;7399262;19;1715;-54
2023/06/30 09:38:06;;;;;;;;;;;;;;;24.19;66.16;100682.03;7398208;19;1390;-54
2023/06/30 09:40:35;;;;;;;;;;;;;;;24.19;66.33;100682.88;7398240;19;1811;-54
2023/06/30 09:43:07;;;;;;;;;;;;;;;24.17;66.30;100674.09;7398006;19;1382;-54
2023/06/30 09:45:35;;;;;;;;;;;;;;;24.15;66.18;100692.34;7395487;19;1858;-54
2023/06/30 09:48:03;;;;;;;;;;;;;;;24.19;66.00;100677.47;7399276;19;1477;-54
2023/06/30 09:50:33;;;;;;;;;;;;;;;24.17;66.27;100668.69;7399029;19;1464;-54
2023/06/30 09:53:01;;;;;;;;;;;;;;;24.13;66.58;100656.56;7397778;19;1462;-54
2023/06/30 09:55:30;;;;;;;;;;;;;;;24.13;66.65;100680.88;7399631;19;1023;-54
2023/06/30 09:57:58;;;;;;;;;;;;;;;24.09;66.51;100668.69;7394907;19;1529;-54
2023/06/30 10:00:29;;;;;;;;;;;;;;;24.08;66.40;100652.69;7399064;19;1742;-54
2023/06/30 10:03:04;;;;;;;;;;;;;;;24.15;66.44;100667.16;7397585;19;1426;-54
2023/06/30 10:05:33;;;;;;;;;;;;;;;24.12;66.39;100662.97;7397165;19;1848;-54
2023/06/30 10:08:02;;;;;;;;;;;;;;;24.11;66.62;100660.41;7399029;19;1402;-54
2023/06/30 10:10:34;;;;;;;;;;;;;;;24.12;66.29;100676.47;7397427;19;1037;-54
2023/06/30 10:13:04;;;;;;;;;;;;;;;24.10;66.51;100640.69;7396607;19;1766;-54
2023/06/30 10:15:35;;;;;;;;;;;;;;;24.09;66.64;100644.38;7397664;19;1719;-54
2023/06/30 10:18:04;;;;;;;;;;;;;;;24.10;66.62;100647.94;7394764;19;1817;-54
2023/06/30 10:20:33;;;;;;;;;;;;;;;24.01;66.75;100630.91;7396301;19;1446;-54
2023/06/30 10:23:02;;;;;;;;;;;;;;;24.09;66.54;100633.56;7398288;19;1751;-54
2023/06/30 10:25:31;;;;;;;;;;;;;;;24.12;66.56;100637.81;7398035;19;1847;-54
2023/06/30 10:27:59;;;;;;;;;;;;;;;24.10;66.47;100632.56;7398297;19;1928;-54
2023/06/30 10:30:28;;;;;;;;;;;;;;;24.15;66.59;100623.94;7397113;19;1874;-54
2023/06/30 10:32:59;;;;;;;;;;;;;;;24.15;66.57;100637.44;7395681;19;2083;-54
2023/06/30 10:35:28;;;;;;;;;;;;;;;24.12;66.59;100633.25;7397251;19;1395;-54
2023/06/30 10:37:57;;;;;;;;;;;;;;;24.13;66.67;100629.53;7398552;19;1020;-54
2023/06/30 10:40:26;;;;;;;;;;;;;;;24.15;66.33;100637.44;7398809;19;950;-54
2023/06/30 10:42:56;;;;;;;;;;;;;;;24.07;66.61;100623.97;7397237;19;1849;-54
2023/06/30 10:45:29;;;;;;;;;;;;;;;24.06;66.55;100622.28;7396656;19;1858;-54
2023/06/30 10:48:00;;;;;;;;;;;;;;;24.11;66.74;100650.44;7396707;19;1438;-54
2023/06/30 10:50:28;;;;;;;;;;;;;;;24.06;66.71;100631.22;7397856;19;1374;-54
2023/06/30 10:52:57;;;;;;;;;;;;;;;24.09;66.65;100633.56;7397036;19;1779;-54
2023/06/30 10:55:28;;;;;;;;;;;;;;;24.06;66.80;100633.09;7396446;19;1750;-54
2023/06/30 10:57:58;;;;;;;;;;;;;;;24.06;66.94;100622.28;7397100;19;994;-54
2023/06/30 11:00:31;;;;;;;;;;;;;;;24.07;66.55;100623.97;7397283;19;1936;-54
2023/06/30 11:03:02;;;;;;;;;;;;;;;24.07;66.81;100629.38;7395059;19;1899;-54
2023/06/30 11:05:32;;;;;;;;;;;;;;;24.07;66.70;100614.00;7395426;19;1852;-54
2023/06/30 11:08:06;;;;;;;;;;;;;;;24.05;66.54;100615.19;7396469;19;1871;-54
2023/06/30 11:10:38;;;;;;;;;;;;;;;24.01;66.76;100623.66;7397360;19;1723;-55
2023/06/30 11:13:09;;;;;;;;;;;;;;;24.04;66.76;100608.13;7395595;19;1727;-55
2023/06/30 11:15:38;;;;;;;;;;;;;;;24.01;66.84;100588.53;7396030;19;1394;-54
2023/06/30 11:18:12;;;;;;;;;;;;;;;24.09;66.73;100606.56;7393898;19;1749;-54
2023/06/30 11:20:40;;;;;;;;;;;;;;;24.03;66.63;100596.44;7395155;19;1430;-54
2023/06/30 11:23:17;;;;;;;;;;;;;;;24.04;66.81;100608.97;7395070;19;1410;-54
2023/06/30 11:25:46;;;;;;;;;;;;;;;24.06;66.52;100595.28;7394311;19;1876;-54
2023/06/30 11:28:14;;;;;;;;;;;;;;;24.03;67.07;100604.56;7395009;19;1473;-54
2023/06/30 11:30:43;;;;;;;;;;;;;;;23.99;67.05;100584.31;7397340;19;1009;-54
2023/06/30 11:33:14;;;;;;;;;;;;;;;24.02;66.92;100586.69;7397167;19;954;-54
2023/06/30 11:35:42;;;;;;;;;;;;;;;24.01;66.83;100585.84;7395890;19;1509;-54
2023/06/30 11:38:11;;;;;;;;;;;;;;;24.03;66.98;100585.66;7395420;19;1463;-54
2023/06/30 11:40:46;;;;;;;;;;;;;;;24.06;66.72;100585.31;7395166;19;1806;-54
2023/06/30 11:43:15;;;;;;;;;;;;;;;24.04;66.61;100573.84;7399040;19;1950;-54
2023/06/30 11:45:43;;;;;;;;;;;;;;;24.02;66.64;100576.69;7401493;19;1846;-54
2023/06/30 11:48:14;;;;;;;;;;;;;;;24.00;66.99;100589.53;7402287;19;1387;-54
2023/06/30 11:50:43;;;;;;;;;;;;;;;23.99;67.03;100574.38;7401713;19;1390;-54
2023/06/30 11:53:11;;;;;;;;;;;;;;;23.97;67.01;100564.72;7401583;19;1472;-54
2023/06/30 11:55:44;;;;;;;;;;;;;;;24.02;67.13;100567.75;7402622;19;1853;-54
2023/06/30 11:58:12;;;;;;;;;;;;;;;23.96;67.05;100568.47;7400824;19;1465;-55
2023/06/30 12:00:44;;;;;;;;;;;;;;;23.97;67.05;100559.31;7403718;19;961;-54
2023/06/30 12:03:16;;;;;;;;;;;;;;;23.95;67.16;100559.50;7402123;19;1129;-54
2023/06/30 12:05:45;;;;;;;;;;;;;;;23.98;67.04;100553.75;7401728;19;1846;-54
2023/06/30 12:08:13;;;;;;;;;;;;;;;24.01;67.18;100547.16;7402403;19;1831;-54
2023/06/30 12:10:42;;;;;;;;;;;;;;;23.97;67.10;100545.81;7401247;19;1517;-54
2023/06/30 12:13:11;;;;;;;;;;;;;;;23.96;67.14;100542.28;7402260;19;1387;-54
2023/06/30 12:15:40;;;;;;;;;;;;;;;23.97;67.05;100548.53;7402667;19;1736;-54
2023/06/30 12:18:09;;;;;;;;;;;;;;;23.95;67.13;100545.16;7401496;19;1398;-54
2023/06/30 12:20:41;;;;;;;;;;;;;;;23.94;67.06;100543.50;7400917;19;1394;-54
2023/06/30 12:23:09;;;;;;;;;;;;;;;23.95;67.21;100534.34;7400326;19;1390;-55
2023/06/30 12:25:38;;;;;;;;;;;;;;;23.93;67.16;100534.53;7401011;19;1851;-55
2023/06/30 12:28:07;;;;;;;;;;;;;;;23.94;67.29;100538.09;7401455;19;1472;-55
2023/06/30 12:30:35;;;;;;;;;;;;;;;23.95;67.28;100534.34;7402755;19;975;-54
2023/06/30 12:33:04;;;;;;;;;;;;;;;23.94;67.11;100521.88;7401824;19;1928;-54
2023/06/30 12:35:33;;;;;;;;;;;;;;;23.96;67.22;100514.44;7401002;19;1589;-54
2023/06/30 12:38:07;;;;;;;;;;;;;;;23.96;67.09;100514.44;7398593;19;1564;-54
2023/06/30 12:40:36;;;;;;;;;;;;;;;23.95;67.10;100518.16;7401993;19;1731;-54
2023/06/30 12:43:04;;;;;;;;;;;;;;;23.98;67.13;100507.84;7399931;19;1794;-55
2023/06/30 12:45:32;;;;;;;;;;;;;;;24.01;67.09;100501.25;7400703;19;1859;-54
2023/06/30 12:48:01;;;;;;;;;;;;;;;24.02;67.05;100511.88;7399732;19;1394;-54
2023/06/30 12:50:29;;;;;;;;;;;;;;;24.02;67.25;100513.75;7400123;19;1702;-54
2023/06/30 12:52:59;;;;;;;;;;;;;;;24.02;67.15;100513.75;7400093;19;1031;-54
2023/06/30 12:55:31;;;;;;;;;;;;;;;24.01;66.95;100503.94;7399006;19;1952;-54
2023/06/30 12:57:59;;;;;;;;;;;;;;;24.04;67.24;100525.22;7397957;19;1561;-55